Kendall Park, New Jersey
Current Conditions -  °F | °C
As of 9:53 AM on Thursday 18 Dec 2014 (Local Time) from KSMQ Reporting Station
Overcast Overcast  
Wind Chill: 31°   Ceiling: 4100
Heat Index: 38°   Visibility: 10mi
Dew Point: 22°   Wind: 9mph
Humidity: 53%   Direction: 300°WNW
Pressure: 30.02"   Gusts: 23mph
Location:  40.44°N, 74.54°W
Report Text: KSMQ 181453Z AUTO 30008G20KT 10SM OVC041 03/M06 A3002 RMK AO2 SLP168 T00331056 53018
Loading
Personal Weather Stations






























Interactive Weather Map New forecast layout! Learn more

10-Day Weather Forecast

Advertisements
Track Severe Weather on mobile